createdAt,value
2023-05-24T00:02:13.863Z,13.50
2023-05-24T00:04:41.661Z,13.50
2023-05-24T00:07:08.585Z,13.40
2023-05-24T00:09:35.502Z,13.40
2023-05-24T00:12:02.569Z,13.40
2023-05-24T00:14:29.356Z,13.40
2023-05-24T00:16:56.168Z,13.40
2023-05-24T00:19:23.104Z,13.40
2023-05-24T00:21:50.025Z,13.40
2023-05-24T00:24:19.625Z,13.30
2023-05-24T00:26:46.399Z,13.30
2023-05-24T00:29:13.186Z,13.30
2023-05-24T00:31:39.940Z,13.30
2023-05-24T00:34:06.999Z,13.30
2023-05-24T00:36:33.993Z,13.20
2023-05-24T00:39:00.825Z,13.20
2023-05-24T00:41:27.708Z,13.20
2023-05-24T00:43:54.540Z,13.20
2023-05-24T00:46:28.895Z,13.20
2023-05-24T00:48:56.893Z,13.20
2023-05-24T00:51:26.343Z,13.10
2023-05-24T00:53:53.667Z,13.10
2023-05-24T00:56:20.661Z,13.10
2023-05-24T00:58:48.423Z,13.10
2023-05-24T01:01:15.180Z,13.10
2023-05-24T01:03:42.181Z,13.10
2023-05-24T01:06:13.634Z,13.00
2023-05-24T01:08:40.540Z,13.00
2023-05-24T01:11:45.053Z,13.00
2023-05-24T01:14:43.840Z,13.00
2023-05-24T01:17:18.977Z,12.90
2023-05-24T01:20:06.889Z,12.90
2023-05-24T01:23:04.944Z,12.90
2023-05-24T01:26:00.759Z,12.90
2023-05-24T01:28:28.005Z,12.90
2023-05-24T01:30:55.910Z,12.80
2023-05-24T01:33:23.988Z,12.80
2023-05-24T01:35:50.750Z,12.80
2023-05-24T01:38:17.535Z,12.80
2023-05-24T01:40:47.055Z,12.80
2023-05-24T01:43:33.706Z,12.70
2023-05-24T01:46:32.406Z,12.70
2023-05-24T01:49:23.273Z,12.70
2023-05-24T01:52:00.269Z,12.70
2023-05-24T01:54:30.687Z,12.70
2023-05-24T01:56:58.756Z,12.70
2023-05-24T01:59:28.487Z,12.60
2023-05-24T02:01:55.474Z,12.60
2023-05-24T02:04:22.311Z,12.60
2023-05-24T02:06:49.095Z,12.60
2023-05-24T02:09:15.817Z,12.60
2023-05-24T02:11:42.588Z,12.60
2023-05-24T02:14:09.303Z,12.60
2023-05-24T02:16:42.455Z,12.50
2023-05-24T02:19:09.700Z,12.50
2023-05-24T02:21:36.449Z,12.50
2023-05-24T02:24:03.785Z,12.50
2023-05-24T02:26:30.662Z,12.50
2023-05-24T02:28:57.348Z,12.50
2023-05-24T02:31:25.800Z,12.40
2023-05-24T02:33:52.496Z,12.40
2023-05-24T02:36:19.222Z,12.40
2023-05-24T02:38:45.981Z,12.40
2023-05-24T02:41:17.820Z,12.40
2023-05-24T02:43:45.590Z,12.40
2023-05-24T02:46:12.840Z,12.40
2023-05-24T02:48:39.937Z,12.30
2023-05-24T02:51:07.035Z,12.30
2023-05-24T02:53:33.820Z,12.30
2023-05-24T02:56:00.548Z,12.30
2023-05-24T02:58:30.274Z,12.30
2023-05-24T03:00:57.469Z,12.30
2023-05-24T03:03:24.324Z,12.30
2023-05-24T03:05:51.497Z,12.30
2023-05-24T03:08:18.259Z,12.30
2023-05-24T03:10:44.999Z,12.30
2023-05-24T03:13:13.257Z,12.30
2023-05-24T03:15:40.010Z,12.20
2023-05-24T03:18:07.491Z,12.20
2023-05-24T03:20:35.485Z,12.20
2023-05-24T03:23:02.243Z,12.20
2023-05-24T03:25:29.520Z,12.20
2023-05-24T03:27:56.233Z,12.20
2023-05-24T03:30:23.130Z,12.20
2023-05-24T03:32:53.804Z,12.20
2023-05-24T03:35:20.720Z,12.20
2023-05-24T03:37:48.909Z,12.20
2023-05-24T03:40:16.477Z,12.20
2023-05-24T03:42:55.730Z,12.20
2023-05-24T03:45:39.136Z,12.20
2023-05-24T03:48:07.062Z,12.10
2023-05-24T03:50:34.381Z,12.20
2023-05-24T03:53:01.148Z,12.20
2023-05-24T03:55:27.870Z,12.20
2023-05-24T03:57:54.559Z,12.20
2023-05-24T04:00:21.655Z,12.20
2023-05-24T04:02:49.527Z,12.20
2023-05-24T04:05:16.365Z,12.20
2023-05-24T04:07:45.299Z,12.20
2023-05-24T04:10:12.689Z,12.20
2023-05-24T04:12:41.326Z,12.20
2023-05-24T04:15:08.770Z,12.30
2023-05-24T04:17:35.943Z,12.30
2023-05-24T04:20:03.631Z,12.30
2023-05-24T04:22:30.612Z,12.30
2023-05-24T04:24:58.027Z,12.30
2023-05-24T04:27:26.040Z,12.30
2023-05-24T04:29:54.328Z,12.30
2023-05-24T04:32:21.044Z,12.40
2023-05-24T04:34:47.810Z,12.40
2023-05-24T04:37:17.112Z,12.40
2023-05-24T04:39:46.017Z,12.50
2023-05-24T04:42:13.087Z,12.50
2023-05-24T04:44:42.971Z,12.60
2023-05-24T04:47:10.649Z,12.70
2023-05-24T04:49:37.761Z,12.80
2023-05-24T04:52:05.170Z,12.80
2023-05-24T04:54:32.736Z,12.90
2023-05-24T04:56:59.485Z,13.00
2023-05-24T04:59:26.187Z,13.10
2023-05-24T05:01:52.913Z,13.10
2023-05-24T05:04:19.620Z,13.20
2023-05-24T05:06:46.534Z,13.20
2023-05-24T05:09:14.715Z,13.30
2023-05-24T05:11:41.677Z,13.30
2023-05-24T05:14:11.610Z,13.40
2023-05-24T05:16:39.035Z,13.40
2023-05-24T05:19:05.887Z,13.40
2023-05-24T05:21:33.483Z,13.40
2023-05-24T05:24:01.200Z,13.50
2023-05-24T05:26:28.429Z,13.50
2023-05-24T05:28:55.827Z,13.50
2023-05-24T05:31:22.957Z,13.60
2023-05-24T05:33:49.723Z,13.60
2023-05-24T05:36:16.921Z,13.60
2023-05-24T05:38:43.637Z,13.70
2023-05-24T05:41:10.707Z,13.80
2023-05-24T05:43:39.173Z,13.80
2023-05-24T05:46:06.584Z,13.90
2023-05-24T05:48:33.374Z,14.00
2023-05-24T05:51:00.224Z,14.10
2023-05-24T05:53:26.977Z,14.20
2023-05-24T05:55:53.692Z,14.30
2023-05-24T05:58:20.482Z,14.40
2023-05-24T06:00:47.153Z,14.50
2023-05-24T06:03:14.032Z,14.60
2023-05-24T06:05:41.767Z,14.70
2023-05-24T06:08:08.474Z,14.70
2023-05-24T06:10:35.309Z,14.80
2023-05-24T06:13:03.330Z,14.90
2023-05-24T06:15:30.418Z,14.90
2023-05-24T06:17:57.324Z,15.00
2023-05-24T06:20:24.233Z,15.10
2023-05-24T06:22:51.038Z,15.10
2023-05-24T06:25:20.780Z,15.20
2023-05-24T06:27:47.584Z,15.30
2023-05-24T06:30:14.501Z,15.30
2023-05-24T06:32:41.635Z,15.40
2023-05-24T06:35:08.932Z,15.50
2023-05-24T06:37:38.476Z,15.50
2023-05-24T06:40:08.834Z,15.50
2023-05-24T06:42:36.837Z,15.60
2023-05-24T06:45:03.884Z,15.70
2023-05-24T06:47:30.836Z,15.70
2023-05-24T06:49:57.798Z,15.80
2023-05-24T06:52:24.618Z,15.90
2023-05-24T06:54:52.177Z,16.00
2023-05-24T06:57:18.903Z,16.10
2023-05-24T06:59:45.988Z,16.30
2023-05-24T07:02:12.777Z,16.40
2023-05-24T07:04:41.271Z,16.60
2023-05-24T07:07:08.969Z,16.70
2023-05-24T07:09:35.719Z,16.80
2023-05-24T07:12:02.641Z,16.90
2023-05-24T07:14:29.385Z,17.00
2023-05-24T07:16:57.488Z,17.00
2023-05-24T07:19:28.847Z,17.00
2023-05-24T07:21:58.744Z,17.00
2023-05-24T07:24:25.465Z,17.00
2023-05-24T07:26:53.652Z,17.00
2023-05-24T07:29:21.932Z,17.00
2023-05-24T07:31:48.847Z,17.00
2023-05-24T07:34:16.165Z,17.00
2023-05-24T07:36:42.876Z,17.10
2023-05-24T07:39:10.191Z,17.00
2023-05-24T07:41:37.161Z,17.10
2023-05-24T07:44:04.054Z,17.10
2023-05-24T07:46:30.795Z,17.20
2023-05-24T07:48:57.556Z,17.20
2023-05-24T07:51:24.257Z,17.30
2023-05-24T07:53:50.930Z,17.40
2023-05-24T07:56:17.651Z,17.50
2023-05-24T07:58:46.672Z,17.70
2023-05-24T08:01:14.129Z,17.70
2023-05-24T08:03:41.021Z,17.80
2023-05-24T08:06:08.068Z,17.90
2023-05-24T08:08:35.560Z,17.90
2023-05-24T08:11:02.299Z,18.00
2023-05-24T08:13:28.996Z,18.10
2023-05-24T08:15:55.867Z,18.10
2023-05-24T08:18:22.689Z,18.10
2023-05-24T08:20:49.531Z,18.10
2023-05-24T08:23:16.228Z,18.10
2023-05-24T08:25:43.077Z,18.10
2023-05-24T08:28:10.987Z,18.20
2023-05-24T08:30:38.280Z,18.20
2023-05-24T08:33:05.046Z,18.20
2023-05-24T08:35:31.750Z,18.20
2023-05-24T08:37:58.398Z,18.20
2023-05-24T08:40:25.375Z,18.30
2023-05-24T08:42:52.873Z,18.30
2023-05-24T08:45:22.147Z,18.30
2023-05-24T08:47:51.698Z,18.30
2023-05-24T08:50:19.273Z,18.40
2023-05-24T08:52:46.490Z,18.40
2023-05-24T08:55:14.462Z,18.50
2023-05-24T08:57:41.918Z,18.70
2023-05-24T09:00:13.754Z,18.80
2023-05-24T09:02:42.244Z,19.10
2023-05-24T09:05:16.306Z,19.30
2023-05-24T09:07:46.463Z,19.50
2023-05-24T09:10:13.374Z,19.70
2023-05-24T09:12:44.641Z,19.80
2023-05-24T09:15:11.999Z,19.90
2023-05-24T09:17:40.585Z,19.90
2023-05-24T09:20:09.097Z,19.90
2023-05-24T09:22:41.440Z,19.80
2023-05-24T09:25:10.884Z,19.80
2023-05-24T09:27:38.424Z,19.70
2023-05-24T09:30:10.083Z,19.60
2023-05-24T09:32:38.600Z,19.50
2023-05-24T09:35:09.381Z,19.40
2023-05-24T09:37:38.753Z,19.30
2023-05-24T09:40:07.236Z,19.20
2023-05-24T09:42:34.107Z,19.10
2023-05-24T09:45:09.411Z,19.00
2023-05-24T09:47:40.999Z,18.90
2023-05-24T09:50:19.735Z,18.90
2023-05-24T09:52:46.657Z,18.90
2023-05-24T09:55:18.127Z,18.90
2023-05-24T09:58:05.981Z,18.90
2023-05-24T10:00:41.242Z,19.00
2023-05-24T10:03:11.956Z,19.10
2023-05-24T10:05:45.121Z,19.20
2023-05-24T10:08:14.188Z,19.30
2023-05-24T10:10:42.998Z,19.40
2023-05-24T10:13:10.338Z,19.40
2023-05-24T10:15:37.121Z,19.50
2023-05-24T10:18:10.457Z,19.60
2023-05-24T10:20:38.211Z,19.60
2023-05-24T10:23:09.707Z,19.60
2023-05-24T10:25:41.041Z,19.60
2023-05-24T10:28:12.434Z,19.60
2023-05-24T10:31:01.849Z,19.50
2023-05-24T10:33:31.222Z,19.50
2023-05-24T10:35:58.649Z,19.40
2023-05-24T10:38:25.720Z,19.40
2023-05-24T10:40:52.829Z,19.30
2023-05-24T10:43:21.344Z,19.20
2023-05-24T10:45:51.690Z,19.20
2023-05-24T10:48:24.657Z,19.20
2023-05-24T10:50:51.877Z,19.20
2023-05-24T10:53:22.391Z,19.20
2023-05-24T10:55:55.740Z,19.20
2023-05-24T10:58:58.168Z,19.10
2023-05-24T11:01:32.162Z,19.20
2023-05-24T11:04:15.686Z,19.20
2023-05-24T11:06:49.551Z,19.20
2023-05-24T11:09:22.459Z,19.20
2023-05-24T11:11:54.552Z,19.10
2023-05-24T11:14:27.674Z,19.20
2023-05-24T11:16:55.100Z,19.20
2023-05-24T11:19:24.307Z,19.10
2023-05-24T11:21:53.406Z,19.20
2023-05-24T11:24:21.739Z,19.10
2023-05-24T11:26:50.292Z,19.20
2023-05-24T11:29:18.051Z,19.20
2023-05-24T11:31:57.686Z,19.20
2023-05-24T11:34:27.096Z,19.30
2023-05-24T11:36:55.187Z,19.30
2023-05-24T11:39:23.389Z,19.40
2023-05-24T11:41:51.275Z,19.40
2023-05-24T11:44:19.609Z,19.50
2023-05-24T11:46:46.820Z,19.60
2023-05-24T11:49:17.231Z,19.60
2023-05-24T11:51:44.393Z,19.60
2023-05-24T11:54:11.731Z,19.70
2023-05-24T11:56:38.634Z,19.70
2023-05-24T11:59:18.387Z,19.70
2023-05-24T12:01:45.113Z,19.70
2023-05-24T12:04:12.908Z,19.70
2023-05-24T12:06:42.015Z,19.70
2023-05-24T12:09:13.183Z,19.70
2023-05-24T12:11:42.134Z,19.70
2023-05-24T12:14:13.671Z,19.70
2023-05-24T12:16:42.659Z,19.70
2023-05-24T12:19:31.753Z,19.80
2023-05-24T12:22:01.020Z,19.80
2023-05-24T12:24:28.670Z,19.90
2023-05-24T12:27:03.621Z,20.00
2023-05-24T12:29:38.654Z,20.00
2023-05-24T12:32:06.461Z,20.00
2023-05-24T12:34:33.222Z,20.00
2023-05-24T12:37:00.454Z,20.00
2023-05-24T12:39:31.515Z,20.00
2023-05-24T12:41:59.588Z,20.00
2023-05-24T12:44:37.544Z,20.00
2023-05-24T12:47:06.702Z,19.90
2023-05-24T12:49:33.933Z,19.90
2023-05-24T12:52:03.892Z,19.90
2023-05-24T12:54:30.828Z,20.00
2023-05-24T12:57:00.205Z,20.10
2023-05-24T12:59:28.374Z,20.10
2023-05-24T13:01:55.511Z,20.10
2023-05-24T13:04:26.090Z,20.30
2023-05-24T13:06:52.860Z,20.30
2023-05-24T13:09:22.306Z,20.30
2023-05-24T13:11:49.488Z,20.40
2023-05-24T13:14:16.976Z,20.50
2023-05-24T13:16:44.206Z,20.50
2023-05-24T13:19:11.824Z,20.60
2023-05-24T13:21:39.096Z,20.60
2023-05-24T13:24:06.825Z,20.60
2023-05-24T13:26:37.446Z,20.70
2023-05-24T13:29:32.206Z,20.70
2023-05-24T13:31:55.440Z,20.70
2023-05-24T13:34:25.600Z,20.70
2023-05-24T13:36:54.162Z,20.70
2023-05-24T13:39:22.131Z,20.80
2023-05-24T13:41:49.017Z,20.80
2023-05-24T13:44:16.954Z,20.80
2023-05-24T13:46:44.058Z,20.80
2023-05-24T13:49:11.780Z,20.80
2023-05-24T13:51:39.416Z,20.90
2023-05-24T13:54:07.183Z,20.90
2023-05-24T13:56:34.480Z,20.90
2023-05-24T13:59:02.636Z,20.90
2023-05-24T14:01:30.244Z,20.90
2023-05-24T14:03:57.142Z,20.90
2023-05-24T14:06:24.117Z,20.90
2023-05-24T14:08:51.124Z,20.90
2023-05-24T14:11:17.838Z,20.90
2023-05-24T14:16:14.783Z,20.90
2023-05-24T14:18:41.885Z,20.90
2023-05-24T14:21:08.555Z,20.90
2023-05-24T14:23:35.355Z,20.90
2023-05-24T14:26:02.347Z,21.00
2023-05-24T14:28:29.093Z,21.00
2023-05-24T14:30:55.800Z,21.00
2023-05-24T14:33:23.339Z,21.00
2023-05-24T14:35:51.492Z,21.10
2023-05-24T14:38:18.302Z,21.10
2023-05-24T14:40:47.435Z,21.20
2023-05-24T14:43:14.602Z,21.30
2023-05-24T14:45:42.318Z,21.30
2023-05-24T14:48:13.236Z,21.40
2023-05-24T14:50:40.949Z,21.50
2023-05-24T14:53:14.142Z,21.50
2023-05-24T14:55:42.692Z,21.50
2023-05-24T14:58:11.776Z,21.50
2023-05-24T15:00:39.025Z,21.50
2023-05-24T15:03:07.893Z,21.50
2023-05-24T15:05:36.060Z,21.40
2023-05-24T15:08:02.849Z,21.40
2023-05-24T15:10:29.558Z,21.30
2023-05-24T15:12:56.254Z,21.30
2023-05-24T15:15:23.385Z,21.30
2023-05-24T15:17:50.173Z,21.20
2023-05-24T15:20:17.015Z,21.20
2023-05-24T15:22:43.919Z,21.10
2023-05-24T15:25:11.341Z,21.10
2023-05-24T15:27:38.600Z,21.00
2023-05-24T15:30:06.303Z,21.00
2023-05-24T15:32:33.001Z,21.00
2023-05-24T15:35:02.554Z,21.00
2023-05-24T15:37:29.319Z,21.00
2023-05-24T15:39:56.085Z,20.90
2023-05-24T15:42:24.600Z,20.90
2023-05-24T15:44:51.580Z,20.90
2023-05-24T15:47:21.257Z,20.90
2023-05-24T15:49:49.565Z,20.90
2023-05-24T15:52:16.376Z,20.80
2023-05-24T15:54:43.209Z,20.90
2023-05-24T15:57:09.951Z,20.90
2023-05-24T15:59:38.475Z,20.90
2023-05-24T16:02:06.484Z,21.00
2023-05-24T16:04:33.261Z,21.00
2023-05-24T16:07:00.347Z,21.00
2023-05-24T16:09:27.314Z,21.00
2023-05-24T16:11:54.137Z,21.00
2023-05-24T16:14:21.124Z,21.00
2023-05-24T16:16:47.908Z,21.00
2023-05-24T16:19:14.800Z,21.00
2023-05-24T16:21:41.885Z,21.00
2023-05-24T16:24:09.206Z,21.00
2023-05-24T16:26:36.167Z,20.90
2023-05-24T16:29:02.907Z,20.90
2023-05-24T16:31:31.104Z,20.90
2023-05-24T16:33:58.778Z,20.90
2023-05-24T16:36:26.864Z,20.80
2023-05-24T16:38:53.827Z,20.80
2023-05-24T16:41:20.535Z,20.70
2023-05-24T16:43:47.233Z,20.70
2023-05-24T16:46:14.009Z,20.70
2023-05-24T16:48:41.033Z,20.70
2023-05-24T16:51:07.856Z,20.60
2023-05-24T16:53:34.565Z,20.60
2023-05-24T16:56:01.316Z,20.50
2023-05-24T16:58:28.824Z,20.50
2023-05-24T17:00:55.749Z,20.40
2023-05-24T17:03:28.293Z,20.40
2023-05-24T17:05:56.780Z,20.40
2023-05-24T17:08:25.707Z,20.30
2023-05-24T17:10:56.053Z,20.30
2023-05-24T17:13:27.368Z,20.30
2023-05-24T17:15:55.284Z,20.30
2023-05-24T17:18:30.186Z,20.30
2023-05-24T17:20:57.985Z,20.30
2023-05-24T17:23:30.655Z,20.30
2023-05-24T17:25:57.950Z,20.20
2023-05-24T17:28:27.645Z,20.20
2023-05-24T17:30:59.611Z,20.30
2023-05-24T17:33:28.037Z,20.20
2023-05-24T17:35:56.543Z,20.20
2023-05-24T17:38:24.873Z,20.20
2023-05-24T17:40:59.497Z,20.10
2023-05-24T17:43:32.169Z,20.20
2023-05-24T17:46:06.053Z,20.10
2023-05-24T17:48:34.662Z,20.10
2023-05-24T17:51:03.736Z,20.00
2023-05-24T17:53:33.436Z,20.00
2023-05-24T17:56:00.814Z,20.00
2023-05-24T17:58:28.655Z,20.00
2023-05-24T18:00:55.449Z,19.90
2023-05-24T18:03:23.827Z,19.90
2023-05-24T18:05:50.617Z,19.90
2023-05-24T18:08:17.380Z,19.90
2023-05-24T18:10:44.012Z,19.80
2023-05-24T18:13:11.092Z,19.80
2023-05-24T18:15:37.863Z,19.80
2023-05-24T18:18:04.726Z,19.80
2023-05-24T18:20:31.650Z,19.70
2023-05-24T18:22:58.419Z,19.70
2023-05-24T18:25:25.674Z,19.70
2023-05-24T18:27:52.368Z,19.70
2023-05-24T18:30:19.263Z,19.70
2023-05-24T18:32:56.260Z,19.60
2023-05-24T18:35:32.172Z,19.60
2023-05-24T18:37:59.389Z,19.60
2023-05-24T18:40:26.416Z,19.60
2023-05-24T18:42:53.244Z,19.50
2023-05-24T18:45:19.964Z,19.50
2023-05-24T18:47:46.725Z,19.50
2023-05-24T18:50:13.563Z,19.50
2023-05-24T18:52:40.352Z,19.50
2023-05-24T18:55:10.603Z,19.40
2023-05-24T18:57:38.055Z,19.40
2023-05-24T19:00:07.065Z,19.50
2023-05-24T19:02:40.341Z,19.40
2023-05-24T19:05:08.139Z,19.40
2023-05-24T19:07:36.065Z,19.40
2023-05-24T19:10:03.911Z,19.40
2023-05-24T19:12:30.727Z,19.40
2023-05-24T19:14:57.475Z,19.30
2023-05-24T19:17:25.021Z,19.30
2023-05-24T19:19:52.096Z,19.30
2023-05-24T19:22:19.103Z,19.20
2023-05-24T19:24:46.004Z,19.20
2023-05-24T19:27:13.191Z,19.20
2023-05-24T19:29:40.125Z,19.10
2023-05-24T19:32:08.222Z,19.10
2023-05-24T19:34:37.033Z,19.10
2023-05-24T19:37:04.127Z,19.00
2023-05-24T19:39:30.970Z,19.00
2023-05-24T19:41:57.682Z,18.90
2023-05-24T19:44:24.430Z,18.80
2023-05-24T19:46:51.170Z,18.80
2023-05-24T19:49:17.912Z,18.80
2023-05-24T19:51:44.659Z,18.60
2023-05-24T19:54:12.593Z,18.70
2023-05-24T19:56:39.386Z,18.70
2023-05-24T19:59:06.073Z,18.60
2023-05-24T20:01:32.818Z,18.50
2023-05-24T20:03:59.621Z,18.50
2023-05-24T20:06:27.332Z,18.40
2023-05-24T20:08:55.622Z,18.40
2023-05-24T20:11:22.384Z,18.30
2023-05-24T20:13:49.247Z,18.30
2023-05-24T20:16:16.294Z,18.20
2023-05-24T20:18:43.085Z,18.10
2023-05-24T20:21:11.088Z,18.10
2023-05-24T20:23:37.832Z,18.00
2023-05-24T20:26:04.854Z,18.00
2023-05-24T20:28:32.093Z,18.00
2023-05-24T20:30:59.189Z,17.90
2023-05-24T20:33:25.978Z,17.80
2023-05-24T20:35:55.615Z,17.80
2023-05-24T20:38:23.506Z,17.70
2023-05-24T20:40:50.235Z,17.70
2023-05-24T20:43:16.953Z,17.60
2023-05-24T20:45:43.863Z,17.60
2023-05-24T20:48:10.934Z,17.60
2023-05-24T20:50:37.812Z,17.50
2023-05-24T20:53:04.520Z,17.40
2023-05-24T20:55:31.640Z,17.40
2023-05-24T20:57:58.397Z,17.40
2023-05-24T21:00:25.433Z,17.30
2023-05-24T21:02:52.134Z,17.30
2023-05-24T21:05:18.928Z,17.20
2023-05-24T21:07:45.946Z,17.10
2023-05-24T21:10:18.532Z,17.10
2023-05-24T21:12:47.869Z,17.10
2023-05-24T21:15:14.709Z,17.00
2023-05-24T21:17:41.456Z,17.00
2023-05-24T21:20:08.856Z,17.00
2023-05-24T21:22:35.765Z,16.90
2023-05-24T21:25:02.446Z,16.90
2023-05-24T21:27:29.207Z,16.80
2023-05-24T21:29:56.115Z,16.80
2023-05-24T21:32:22.918Z,16.80
2023-05-24T21:34:49.872Z,16.70
2023-05-24T21:37:17.428Z,16.70
2023-05-24T21:39:44.509Z,16.70
2023-05-24T21:42:11.318Z,16.70
2023-05-24T21:44:38.055Z,16.60
2023-05-24T21:47:05.259Z,16.60
2023-05-24T21:49:32.027Z,16.60
2023-05-24T21:51:58.846Z,16.50
2023-05-24T21:54:25.528Z,16.50
2023-05-24T21:56:52.273Z,16.50
2023-05-24T21:59:19.021Z,16.50
2023-05-24T22:01:45.883Z,16.40
2023-05-24T22:04:12.969Z,16.40
2023-05-24T22:06:41.563Z,16.30
2023-05-24T22:09:09.360Z,16.30
2023-05-24T22:11:36.160Z,16.30
2023-05-24T22:14:02.977Z,16.20
2023-05-24T22:16:29.724Z,16.20
2023-05-24T22:18:56.502Z,16.10
2023-05-24T22:21:23.247Z,16.20
2023-05-24T22:23:51.796Z,16.10
2023-05-24T22:26:18.530Z,16.10
2023-05-24T22:28:53.373Z,16.10
2023-05-24T22:31:20.217Z,16.00
2023-05-24T22:33:48.910Z,16.00
2023-05-24T22:36:16.055Z,16.00
2023-05-24T22:38:43.879Z,15.90
2023-05-24T22:41:10.599Z,15.90
2023-05-24T22:43:37.353Z,15.90
2023-05-24T22:46:05.035Z,15.90
2023-05-24T22:48:33.786Z,15.80
2023-05-24T22:51:00.671Z,15.80
2023-05-24T22:53:27.438Z,15.80
2023-05-24T22:55:54.152Z,15.70
2023-05-24T22:58:24.370Z,15.70
2023-05-24T23:00:51.789Z,15.70
2023-05-24T23:03:18.688Z,15.60
2023-05-24T23:05:45.692Z,15.60
2023-05-24T23:08:15.337Z,15.60
2023-05-24T23:10:45.471Z,15.50
2023-05-24T23:13:18.715Z,15.50
2023-05-24T23:15:46.914Z,15.50
2023-05-24T23:18:16.207Z,15.40
2023-05-24T23:20:44.279Z,15.40
2023-05-24T23:23:11.189Z,15.40
2023-05-24T23:25:37.961Z,15.40
2023-05-24T23:28:05.081Z,15.30
2023-05-24T23:30:31.992Z,15.30
2023-05-24T23:32:59.483Z,15.30
2023-05-24T23:35:26.497Z,15.30
2023-05-24T23:37:53.733Z,15.20
2023-05-24T23:40:20.781Z,15.20
2023-05-24T23:42:49.071Z,15.20
2023-05-24T23:45:16.075Z,15.10
2023-05-24T23:47:42.835Z,15.10
2023-05-24T23:50:10.338Z,15.10
2023-05-24T23:52:37.211Z,15.10
2023-05-24T23:55:04.354Z,15.10
2023-05-24T23:57:31.103Z,15.00
2023-05-24T23:59:57.980Z,15.00
